createdAt,value
2016-04-24T00:00:33.408Z,1007.41
2016-04-24T00:01:33.458Z,1007.42
2016-04-24T00:02:33.523Z,1007.37
2016-04-24T00:03:33.572Z,1007.36
2016-04-24T00:04:33.622Z,1007.35
2016-04-24T00:05:33.672Z,1007.39
2016-04-24T00:06:33.721Z,1007.37
2016-04-24T00:07:33.772Z,1007.31
2016-04-24T00:08:33.820Z,1007.33
2016-04-24T00:09:33.885Z,1007.3
2016-04-24T00:10:33.920Z,1007.39
2016-04-24T00:11:33.969Z,1007.35
2016-04-24T00:12:34.018Z,1007.38
2016-04-24T00:13:34.084Z,1007.34
2016-04-24T00:14:34.133Z,1007.37
2016-04-24T00:15:34.183Z,1007.32
2016-04-24T00:16:34.232Z,1007.34
2016-04-24T00:17:34.282Z,1007.32
2016-04-24T00:18:34.332Z,1007.36
2016-04-24T00:19:34.381Z,1007.33
2016-04-24T00:20:34.431Z,1007.28
2016-04-24T00:21:34.480Z,1007.27
2016-04-24T00:22:34.967Z,1007.28
2016-04-24T00:23:34.580Z,1007.3
2016-04-24T00:24:34.629Z,1007.24
2016-04-24T00:25:34.678Z,1007.26
2016-04-24T00:26:34.729Z,1007.21
2016-04-24T00:27:34.778Z,1007.19
2016-04-24T00:28:34.827Z,1007.19
2016-04-24T00:29:34.893Z,1007.17
2016-04-24T00:30:34.926Z,1007.19
2016-04-24T00:31:34.992Z,1007.15
2016-04-24T00:32:35.041Z,1007.15
2016-04-24T00:33:35.091Z,1007.09
2016-04-24T00:34:35.140Z,1007.07
2016-04-24T00:35:35.189Z,1007.08
2016-04-24T00:36:35.239Z,1007.03
2016-04-24T00:37:35.289Z,1007.06
2016-04-24T00:38:35.338Z,1007.09
2016-04-24T00:39:35.389Z,1007.07
2016-04-24T00:40:35.438Z,1007.08
2016-04-24T00:41:35.502Z,1007.02
2016-04-24T00:42:35.537Z,1007.08
2016-04-24T00:43:35.602Z,1007.06
2016-04-24T00:44:35.651Z,1007.04
2016-04-24T00:45:35.686Z,1007.06
2016-04-24T00:46:39.704Z,1007.04
2016-04-24T00:47:35.800Z,1007.01
2016-04-24T00:48:35.849Z,1007.01
2016-04-24T00:49:35.899Z,1007.03
2016-04-24T00:50:35.949Z,1007.08
2016-04-24T00:51:35.998Z,1007.1
2016-04-24T00:52:36.048Z,1007.03
2016-04-24T00:53:36.098Z,1006.99
2016-04-24T00:54:36.147Z,1006.99
2016-04-24T00:55:36.197Z,1007
2016-04-24T00:56:36.246Z,1006.97
2016-04-24T00:57:36.311Z,1007.01
2016-04-24T00:58:36.362Z,1006.98
2016-04-24T00:59:36.411Z,1007
2016-04-24T01:00:36.459Z,1006.98
2016-04-24T01:01:36.510Z,1006.98
2016-04-24T01:02:36.544Z,1006.92
2016-04-24T01:03:36.609Z,1006.91
2016-04-24T01:04:36.659Z,1006.93
2016-04-24T01:05:36.708Z,1006.89
2016-04-24T01:06:36.758Z,1006.92
2016-04-24T01:07:36.822Z,1006.86
2016-04-24T01:08:36.856Z,1006.91
2016-04-24T01:09:36.906Z,1006.93
2016-04-24T01:10:36.971Z,1006.95
2016-04-24T01:11:37.006Z,1006.88
2016-04-24T01:12:37.055Z,1006.96
2016-04-24T01:13:37.104Z,1006.93
2016-04-24T01:14:37.155Z,1006.88
2016-04-24T01:15:37.204Z,1006.93
2016-04-24T01:16:37.252Z,1006.89
2016-04-24T01:17:37.319Z,1006.86
2016-04-24T01:18:37.368Z,1006.89
2016-04-24T01:19:37.418Z,1006.8
2016-04-24T01:20:37.483Z,1006.84
2016-04-24T01:21:37.548Z,1006.84
2016-04-24T01:22:37.566Z,1006.84
2016-04-24T01:23:37.617Z,1006.82
2016-04-24T01:24:37.667Z,1006.85
2016-04-24T01:25:37.717Z,1006.8
2016-04-24T01:26:37.766Z,1006.79
2016-04-24T01:27:37.817Z,1006.81
2016-04-24T01:28:37.866Z,1006.82
2016-04-24T01:29:37.915Z,1006.82
2016-04-24T01:30:37.965Z,1006.75
2016-04-24T01:31:38.014Z,1006.77
2016-04-24T01:32:38.064Z,1006.72
2016-04-24T01:33:38.113Z,1006.69
2016-04-24T01:34:38.178Z,1006.72
2016-04-24T01:35:38.213Z,1006.74
2016-04-24T01:36:38.278Z,1006.72
2016-04-24T01:37:38.327Z,1006.64
2016-04-24T01:38:38.361Z,1006.67
2016-04-24T01:39:38.410Z,1006.69
2016-04-24T01:40:38.460Z,1006.7
2016-04-24T01:41:38.526Z,1006.64
2016-04-24T01:42:38.574Z,1006.68
2016-04-24T01:43:38.625Z,1006.67
2016-04-24T01:44:38.674Z,1006.67
2016-04-24T01:45:38.724Z,1006.64
2016-04-24T01:46:38.774Z,1006.65
2016-04-24T01:47:38.823Z,1006.65
2016-04-24T01:48:38.873Z,1006.68
2016-04-24T01:49:38.922Z,1006.62
2016-04-24T01:50:38.971Z,1006.69
2016-04-24T01:51:39.021Z,1006.68
2016-04-24T01:52:39.571Z,1006.64
2016-04-24T01:53:39.170Z,1006.65
2016-04-24T01:54:39.260Z,1006.71
2016-04-24T01:55:39.349Z,1006.74
2016-04-24T01:56:39.439Z,1006.7
2016-04-24T01:57:39.515Z,1006.72
2016-04-24T01:58:39.597Z,1006.73
2016-04-24T01:59:39.662Z,1006.74
2016-04-24T02:00:39.726Z,1006.74
2016-04-24T02:01:39.791Z,1006.71
2016-04-24T02:02:39.855Z,1006.73
2016-04-24T02:03:39.910Z,1006.74
2016-04-24T02:04:39.966Z,1006.76
2016-04-24T02:05:40.020Z,1006.76
2016-04-24T02:06:40.075Z,1006.71
2016-04-24T02:07:40.161Z,1006.66
2016-04-24T02:08:40.182Z,1006.71
2016-04-24T02:09:40.234Z,1006.7
2016-04-24T02:10:40.301Z,1006.69
2016-04-24T02:11:40.352Z,1006.68
2016-04-24T02:12:40.388Z,1006.64
2016-04-24T02:13:40.455Z,1006.6
2016-04-24T02:14:40.505Z,1006.67
2016-04-24T02:15:40.539Z,1006.67
2016-04-24T02:16:40.604Z,1006.67
2016-04-24T02:17:40.654Z,1006.68
2016-04-24T02:18:40.688Z,1006.7
2016-04-24T02:19:40.754Z,1006.69
2016-04-24T02:20:40.804Z,1006.73
2016-04-24T02:21:40.854Z,1006.7
2016-04-24T02:22:41.576Z,1006.72
2016-04-24T02:23:40.954Z,1006.72
2016-04-24T02:24:41.003Z,1006.75
2016-04-24T02:25:41.052Z,1006.74
2016-04-24T02:26:41.102Z,1006.72
2016-04-24T02:27:41.152Z,1006.69
2016-04-24T02:28:41.201Z,1006.66
2016-04-24T02:29:41.266Z,1006.65
2016-04-24T02:30:41.301Z,1006.63
2016-04-24T02:31:41.350Z,1006.61
2016-04-24T02:32:41.399Z,1006.59
2016-04-24T02:33:41.449Z,1006.54
2016-04-24T02:34:41.514Z,1006.55
2016-04-24T02:35:41.564Z,1006.58
2016-04-24T02:36:41.614Z,1006.57
2016-04-24T02:37:41.662Z,1006.55
2016-04-24T02:38:41.713Z,1006.54
2016-04-24T02:39:41.762Z,1006.52
2016-04-24T02:40:41.812Z,1006.55
2016-04-24T02:41:41.861Z,1006.59
2016-04-24T02:42:41.911Z,1006.54
2016-04-24T02:43:41.960Z,1006.53
2016-04-24T02:44:42.010Z,1006.6
2016-04-24T02:45:42.059Z,1006.56
2016-04-24T02:46:42.125Z,1006.54
2016-04-24T02:47:42.159Z,1006.54
2016-04-24T02:48:42.208Z,1006.52
2016-04-24T02:49:42.274Z,1006.5
2016-04-24T02:50:42.307Z,1006.53
2016-04-24T02:51:42.357Z,1006.5
2016-04-24T02:52:42.422Z,1006.5
2016-04-24T02:53:42.471Z,1006.5
2016-04-24T02:54:42.506Z,1006.42
2016-04-24T02:55:42.571Z,1006.44
2016-04-24T02:56:42.620Z,1006.35
2016-04-24T02:57:42.670Z,1006.43
2016-04-24T02:58:42.719Z,1006.44
2016-04-24T02:59:42.769Z,1006.37
2016-04-24T03:00:42.818Z,1006.39
2016-04-24T03:01:42.868Z,1006.39
2016-04-24T03:02:42.917Z,1006.45
2016-04-24T03:03:42.967Z,1006.31
2016-04-24T03:04:43.017Z,1006.36
2016-04-24T03:05:43.066Z,1006.41
2016-04-24T03:06:43.132Z,1006.35
2016-04-24T03:07:43.165Z,1006.37
2016-04-24T03:08:43.215Z,1006.38
2016-04-24T03:09:43.281Z,1006.41
2016-04-24T03:10:43.314Z,1006.38
2016-04-24T03:11:43.379Z,1006.39
2016-04-24T03:12:43.429Z,1006.39
2016-04-24T03:13:43.478Z,1006.38
2016-04-24T03:14:43.528Z,1006.37
2016-04-24T03:15:43.578Z,1006.36
2016-04-24T03:16:43.628Z,1006.34
2016-04-24T03:17:43.677Z,1006.33
2016-04-24T03:18:43.742Z,1006.35
2016-04-24T03:19:43.776Z,1006.34
2016-04-24T03:20:43.841Z,1006.33
2016-04-24T03:21:43.875Z,1006.3
2016-04-24T03:22:43.924Z,1006.31
2016-04-24T03:23:43.990Z,1006.35
2016-04-24T03:24:44.024Z,1006.31
2016-04-24T03:25:44.089Z,1006.25
2016-04-24T03:26:44.138Z,1006.29
2016-04-24T03:27:44.188Z,1006.31
2016-04-24T03:28:44.237Z,1006.34
2016-04-24T03:29:44.287Z,1006.34
2016-04-24T03:30:44.337Z,1006.34
2016-04-24T03:31:44.387Z,1006.34
2016-04-24T03:32:44.435Z,1006.33
2016-04-24T03:33:44.485Z,1006.31
2016-04-24T03:34:44.535Z,1006.31
2016-04-24T03:35:44.584Z,1006.36
2016-04-24T03:36:44.650Z,1006.31
2016-04-24T03:37:45.981Z,1006.32
2016-04-24T03:38:44.733Z,1006.34
2016-04-24T03:39:44.783Z,1006.28
2016-04-24T03:40:44.848Z,1006.29
2016-04-24T03:41:44.881Z,1006.29
2016-04-24T03:42:44.947Z,1006.28
2016-04-24T03:43:44.997Z,1006.27
2016-04-24T03:44:45.031Z,1006.29
2016-04-24T03:45:45.096Z,1006.27
2016-04-24T03:46:45.145Z,1006.3
2016-04-24T03:47:45.194Z,1006.29
2016-04-24T03:48:45.245Z,1006.3
2016-04-24T03:49:45.294Z,1006.27
2016-04-24T03:50:45.344Z,1006.27
2016-04-24T03:51:45.408Z,1006.22
2016-04-24T03:52:45.443Z,1006.26
2016-04-24T03:53:45.491Z,1006.24
2016-04-24T03:54:45.558Z,1006.23
2016-04-24T03:55:45.608Z,1006.24
2016-04-24T03:56:45.641Z,1006.24
2016-04-24T03:57:45.706Z,1006.25
2016-04-24T03:58:45.756Z,1006.28
2016-04-24T03:59:45.804Z,1006.26
2016-04-24T04:00:45.855Z,1006.25
2016-04-24T04:01:45.904Z,1006.25
2016-04-24T04:02:45.954Z,1006.25
2016-04-24T04:03:46.003Z,1006.22
2016-04-24T04:04:46.054Z,1006.27
2016-04-24T04:05:46.103Z,1006.26
2016-04-24T04:06:46.152Z,1006.25
2016-04-24T04:07:46.608Z,1006.26
2016-04-24T04:08:47.064Z,1006.28
2016-04-24T04:09:46.301Z,1006.28
2016-04-24T04:10:46.367Z,1006.22
2016-04-24T04:11:46.415Z,1006.28
2016-04-24T04:12:46.450Z,1006.24
2016-04-24T04:13:46.514Z,1006.27
2016-04-24T04:14:46.549Z,1006.27
2016-04-24T04:15:46.614Z,1006.25
2016-04-24T04:16:46.664Z,1006.23
2016-04-24T04:17:46.713Z,1006.29
2016-04-24T04:18:46.763Z,1006.3
2016-04-24T04:19:46.828Z,1006.26
2016-04-24T04:20:46.862Z,1006.3
2016-04-24T04:21:46.911Z,1006.29
2016-04-24T04:22:46.977Z,1006.26
2016-04-24T04:23:47.010Z,1006.31
2016-04-24T04:24:47.060Z,1006.3
2016-04-24T04:25:47.125Z,1006.3
2016-04-24T04:26:47.160Z,1006.23
2016-04-24T04:27:47.224Z,1006.29
2016-04-24T04:28:47.274Z,1006.33
2016-04-24T04:29:47.324Z,1006.3
2016-04-24T04:30:47.373Z,1006.28
2016-04-24T04:31:47.423Z,1006.28
2016-04-24T04:32:47.472Z,1006.32
2016-04-24T04:33:47.521Z,1006.31
2016-04-24T04:34:47.571Z,1006.29
2016-04-24T04:35:47.621Z,1006.27
2016-04-24T04:36:47.670Z,1006.27
2016-04-24T04:37:47.720Z,1006.25
2016-04-24T04:38:47.770Z,1006.27
2016-04-24T04:39:47.835Z,1006.21
2016-04-24T04:40:47.884Z,1006.26
2016-04-24T04:41:47.934Z,1006.25
2016-04-24T04:42:47.967Z,1006.26
2016-04-24T04:43:48.033Z,1006.22
2016-04-24T04:44:48.083Z,1006.24
2016-04-24T04:45:48.117Z,1006.3
2016-04-24T04:46:48.181Z,1006.24
2016-04-24T04:47:48.231Z,1006.19
2016-04-24T04:48:48.281Z,1006.22
2016-04-24T04:49:48.331Z,1006.26
2016-04-24T04:50:48.380Z,1006.23
2016-04-24T04:51:48.430Z,1006.21
2016-04-24T04:52:48.494Z,1006.19
2016-04-24T04:53:48.528Z,1006.21
2016-04-24T04:54:48.578Z,1006.15
2016-04-24T04:55:48.643Z,1006.22
2016-04-24T04:56:48.677Z,1006.2
2016-04-24T04:57:48.727Z,1006.18
2016-04-24T04:58:48.792Z,1006.17
2016-04-24T04:59:48.841Z,1006.24
2016-04-24T05:00:48.876Z,1006.17
2016-04-24T05:01:48.940Z,1006.25
2016-04-24T05:02:48.991Z,1006.24
2016-04-24T05:03:49.040Z,1006.23
2016-04-24T05:04:49.090Z,1006.23
2016-04-24T05:05:49.139Z,1006.24
2016-04-24T05:06:49.204Z,1006.24
2016-04-24T05:07:49.253Z,1006.24
2016-04-24T05:08:50.538Z,1006.27
2016-04-24T05:09:49.337Z,1006.23
2016-04-24T05:10:49.403Z,1006.25
2016-04-24T05:11:49.436Z,1006.23
2016-04-24T05:12:49.502Z,1006.27
2016-04-24T05:13:49.551Z,1006.25
2016-04-24T05:14:49.585Z,1006.23
2016-04-24T05:15:49.634Z,1006.2
2016-04-24T05:16:49.700Z,1006.22
2016-04-24T05:17:49.749Z,1006.22
2016-04-24T05:18:49.800Z,1006.25
2016-04-24T05:19:49.848Z,1006.3
2016-04-24T05:20:49.897Z,1006.3
2016-04-24T05:21:49.947Z,1006.29
2016-04-24T05:22:49.998Z,1006.31
2016-04-24T05:23:50.047Z,1006.33
2016-04-24T05:24:50.096Z,1006.33
2016-04-24T05:25:50.146Z,1006.36
2016-04-24T05:26:50.195Z,1006.34
2016-04-24T05:27:50.261Z,1006.25
2016-04-24T05:28:50.295Z,1006.27
2016-04-24T05:29:50.360Z,1006.24
2016-04-24T05:30:50.409Z,1006.24
2016-04-24T05:31:50.459Z,1006.24
2016-04-24T05:32:50.508Z,1006.21
2016-04-24T05:33:50.558Z,1006.22
2016-04-24T05:34:50.607Z,1006.22
2016-04-24T05:35:50.657Z,1006.23
2016-04-24T05:36:50.706Z,1006.23
2016-04-24T05:37:50.757Z,1006.19
2016-04-24T05:38:50.806Z,1006.2
2016-04-24T05:39:50.856Z,1006.22
2016-04-24T05:40:50.904Z,1006.19
2016-04-24T05:41:50.971Z,1006.2
2016-04-24T05:42:51.020Z,1006.24
2016-04-24T05:43:51.054Z,1006.22
2016-04-24T05:44:51.119Z,1006.28
2016-04-24T05:45:51.168Z,1006.25
2016-04-24T05:46:51.202Z,1006.23
2016-04-24T05:47:51.253Z,1006.29
2016-04-24T05:48:51.317Z,1006.29
2016-04-24T05:49:51.367Z,1006.28
2016-04-24T05:50:51.416Z,1006.21
2016-04-24T05:51:51.466Z,1006.3
2016-04-24T05:52:51.516Z,1006.29
2016-04-24T05:53:51.565Z,1006.29
2016-04-24T05:54:51.614Z,1006.31
2016-04-24T05:55:51.664Z,1006.3
2016-04-24T05:56:51.729Z,1006.3
2016-04-24T05:57:51.763Z,1006.32
2016-04-24T05:58:51.813Z,1006.34
2016-04-24T05:59:51.878Z,1006.33
2016-04-24T06:00:51.912Z,1006.28
2016-04-24T06:01:51.961Z,1006.3
2016-04-24T06:02:52.027Z,1006.28
2016-04-24T06:03:52.076Z,1006.28
2016-04-24T06:04:52.126Z,1006.25
2016-04-24T06:05:52.176Z,1006.28
2016-04-24T06:06:52.224Z,1006.31
2016-04-24T06:07:52.274Z,1006.28
2016-04-24T06:08:52.324Z,1006.31
2016-04-24T06:09:52.373Z,1006.32
2016-04-24T06:10:52.423Z,1006.29
2016-04-24T06:11:52.473Z,1006.35
2016-04-24T06:12:52.538Z,1006.35
2016-04-24T06:13:52.587Z,1006.38
2016-04-24T06:14:52.621Z,1006.35
2016-04-24T06:15:52.670Z,1006.38
2016-04-24T06:16:52.736Z,1006.34
2016-04-24T06:17:52.786Z,1006.34
2016-04-24T06:18:52.836Z,1006.35
2016-04-24T06:19:52.884Z,1006.32
2016-04-24T06:20:52.934Z,1006.39
2016-04-24T06:21:52.968Z,1006.37
2016-04-24T06:22:53.039Z,1006.34
2016-04-24T06:23:53.073Z,1006.33
2016-04-24T06:24:53.139Z,1006.36
2016-04-24T06:25:53.188Z,1006.34
2016-04-24T06:26:53.222Z,1006.36
2016-04-24T06:27:53.272Z,1006.41
2016-04-24T06:28:53.337Z,1006.35
2016-04-24T06:29:53.386Z,1006.38
2016-04-24T06:30:53.436Z,1006.33
2016-04-24T06:31:53.501Z,1006.37
2016-04-24T06:32:53.551Z,1006.42
2016-04-24T06:33:53.585Z,1006.44
2016-04-24T06:34:53.650Z,1006.38
2016-04-24T06:35:53.683Z,1006.34
2016-04-24T06:36:53.749Z,1006.35
2016-04-24T06:37:53.783Z,1006.36
2016-04-24T06:38:53.958Z,1006.38
2016-04-24T06:39:53.897Z,1006.31
2016-04-24T06:40:53.932Z,1006.42
2016-04-24T06:41:53.981Z,1006.34
2016-04-24T06:42:54.047Z,1006.41
2016-04-24T06:43:54.095Z,1006.41
2016-04-24T06:44:54.146Z,1006.38
2016-04-24T06:45:54.195Z,1006.41
2016-04-24T06:46:54.245Z,1006.42
2016-04-24T06:47:54.293Z,1006.43
2016-04-24T06:48:54.344Z,1006.4
2016-04-24T06:49:54.393Z,1006.42
2016-04-24T06:50:54.459Z,1006.39
2016-04-24T06:51:54.508Z,1006.41
2016-04-24T06:52:54.543Z,1006.38
2016-04-24T06:53:54.607Z,1006.41
2016-04-24T06:54:54.657Z,1006.44
2016-04-24T06:55:54.690Z,1006.37
2016-04-24T06:56:54.756Z,1006.36
2016-04-24T06:57:54.820Z,1006.41
2016-04-24T06:58:54.840Z,1006.39
2016-04-24T06:59:54.889Z,1006.38
2016-04-24T07:00:54.954Z,1006.37
2016-04-24T07:01:55.003Z,1006.35
2016-04-24T07:02:55.053Z,1006.33
2016-04-24T07:03:55.102Z,1006.41
2016-04-24T07:04:55.168Z,1006.37
2016-04-24T07:05:55.202Z,1006.38
2016-04-24T07:06:55.252Z,1006.35
2016-04-24T07:07:55.316Z,1006.34
2016-04-24T07:08:55.350Z,1006.43
2016-04-24T07:09:55.400Z,1006.41
2016-04-24T07:10:55.450Z,1006.36
2016-04-24T07:11:55.515Z,1006.36
2016-04-24T07:12:55.565Z,1006.33
2016-04-24T07:13:55.614Z,1006.34
2016-04-24T07:14:55.663Z,1006.3
2016-04-24T07:15:55.713Z,1006.32
2016-04-24T07:16:55.763Z,1006.29
2016-04-24T07:17:55.812Z,1006.3
2016-04-24T07:18:55.862Z,1006.31
2016-04-24T07:19:55.911Z,1006.33
2016-04-24T07:20:55.962Z,1006.35
2016-04-24T07:21:56.011Z,1006.37
2016-04-24T07:22:56.060Z,1006.32
2016-04-24T07:23:56.109Z,1006.28
2016-04-24T07:24:56.159Z,1006.31
2016-04-24T07:25:56.224Z,1006.32
2016-04-24T07:26:56.274Z,1006.33
2016-04-24T07:27:56.309Z,1006.34
2016-04-24T07:28:56.404Z,1006.34
2016-04-24T07:29:56.422Z,1006.34
2016-04-24T07:30:56.457Z,1006.33
2016-04-24T07:31:56.522Z,1006.39
2016-04-24T07:32:56.572Z,1006.4
2016-04-24T07:33:56.622Z,1006.38
2016-04-24T07:34:56.670Z,1006.33
2016-04-24T07:35:56.720Z,1006.34
2016-04-24T07:36:56.769Z,1006.34
2016-04-24T07:37:56.835Z,1006.29
2016-04-24T07:38:57.635Z,1006.31
2016-04-24T07:39:56.919Z,1006.34
2016-04-24T07:40:56.983Z,1006.32
2016-04-24T07:41:57.018Z,1006.32
2016-04-24T07:42:57.066Z,1006.33
2016-04-24T07:43:57.132Z,1006.3
2016-04-24T07:44:57.166Z,1006.32
2016-04-24T07:45:57.216Z,1006.34
2016-04-24T07:46:57.281Z,1006.28
2016-04-24T07:47:57.330Z,1006.26
2016-04-24T07:48:57.379Z,1006.21
2016-04-24T07:49:57.430Z,1006.21
2016-04-24T07:50:57.479Z,1006.23
2016-04-24T07:51:57.529Z,1006.18
2016-04-24T07:52:57.578Z,1006.22
2016-04-24T07:53:57.628Z,1006.18
2016-04-24T07:54:57.677Z,1006.18
2016-04-24T07:55:57.743Z,1006.17
2016-04-24T07:56:57.777Z,1006.17
2016-04-24T07:57:57.842Z,1006.18
2016-04-24T07:58:57.891Z,1006.16
2016-04-24T07:59:57.941Z,1006.1
2016-04-24T08:00:57.990Z,1006.19
2016-04-24T08:01:58.039Z,1006.13
2016-04-24T08:02:58.090Z,1006.12
2016-04-24T08:03:58.139Z,1006.15
2016-04-24T08:04:58.189Z,1006.16
2016-04-24T08:05:58.238Z,1006.12
2016-04-24T08:06:58.303Z,1006.15
2016-04-24T08:07:58.338Z,1006.14
2016-04-24T08:08:58.403Z,1006.13
2016-04-24T08:09:58.452Z,1006.16
2016-04-24T08:10:58.486Z,1006.16
2016-04-24T08:11:58.535Z,1006.16
2016-04-24T08:12:58.601Z,1006.16
2016-04-24T08:13:58.650Z,1006.18
2016-04-24T08:14:58.685Z,1006.14
2016-04-24T08:15:58.749Z,1006.14
2016-04-24T08:16:58.799Z,1006.17
2016-04-24T08:17:58.848Z,1006.15
2016-04-24T08:18:58.899Z,1006.1
2016-04-24T08:19:58.948Z,1006.08
2016-04-24T08:20:58.998Z,1006.08
2016-04-24T08:22:00.782Z,1006.11
2016-04-24T08:22:59.096Z,1006.15
2016-04-24T08:23:59.161Z,1006.11
2016-04-24T08:24:59.212Z,1006.06
2016-04-24T08:25:59.261Z,1006.02
2016-04-24T08:26:59.310Z,1006.13
2016-04-24T08:27:59.359Z,1006.12
2016-04-24T08:28:59.409Z,1006.17
2016-04-24T08:29:59.459Z,1006.06
2016-04-24T08:30:59.509Z,1006.08
2016-04-24T08:31:59.559Z,1006.18
2016-04-24T08:32:59.608Z,1006.14
2016-04-24T08:33:59.658Z,1006.19
2016-04-24T08:34:59.706Z,1006.14
2016-04-24T08:35:59.756Z,1006.14
2016-04-24T08:36:59.806Z,1006.09
2016-04-24T08:37:59.871Z,1006.19
2016-04-24T08:38:59.921Z,1006.15
2016-04-24T08:39:59.955Z,1006.1
2016-04-24T08:41:00.020Z,1006.09
2016-04-24T08:42:00.069Z,1006.09
2016-04-24T08:43:00.119Z,1006.07
2016-04-24T08:44:00.169Z,1006.03
2016-04-24T08:45:00.218Z,1006.03
2016-04-24T08:46:00.268Z,1005.96
2016-04-24T08:47:00.318Z,1006.04
2016-04-24T08:48:00.366Z,1006.03
2016-04-24T08:49:00.432Z,1006.01
2016-04-24T08:50:00.481Z,1005.94
2016-04-24T08:51:00.516Z,1005.97
2016-04-24T08:52:00.566Z,1005.96
2016-04-24T08:53:00.630Z,1005.9
2016-04-24T08:54:00.679Z,1005.93
2016-04-24T08:55:00.729Z,1005.91
2016-04-24T08:56:00.779Z,1005.85
2016-04-24T08:57:00.828Z,1005.87
2016-04-24T08:58:00.878Z,1005.86
2016-04-24T08:59:00.928Z,1005.89
2016-04-24T09:00:00.978Z,1005.88
2016-04-24T09:01:01.026Z,1005.91
2016-04-24T09:02:01.076Z,1005.88
2016-04-24T09:03:01.126Z,1005.89
2016-04-24T09:04:01.191Z,1005.83
2016-04-24T09:05:01.225Z,1005.8
2016-04-24T09:06:01.275Z,1005.87
2016-04-24T09:07:01.339Z,1005.85
2016-04-24T09:08:01.389Z,1005.79
2016-04-24T09:09:02.298Z,1005.76
2016-04-24T09:10:01.848Z,1005.76
2016-04-24T09:11:01.539Z,1005.89
2016-04-24T09:12:01.588Z,1005.9
2016-04-24T09:13:01.747Z,1005.8
2016-04-24T09:14:01.686Z,1005.84
2016-04-24T09:15:01.736Z,1005.81
2016-04-24T09:16:01.786Z,1005.79
2016-04-24T09:17:01.851Z,1005.76
2016-04-24T09:18:01.885Z,1005.72
2016-04-24T09:19:01.935Z,1005.77
2016-04-24T09:20:02.000Z,1005.72
2016-04-24T09:21:02.034Z,1005.66
2016-04-24T09:22:02.099Z,1005.71
2016-04-24T09:23:02.148Z,1005.61
2016-04-24T09:24:02.198Z,1005.56
2016-04-24T09:25:02.248Z,1005.65
2016-04-24T09:26:02.298Z,1005.61
2016-04-24T09:27:02.346Z,1005.62
2016-04-24T09:28:02.412Z,1005.6
2016-04-24T09:29:02.446Z,1005.64
2016-04-24T09:30:02.495Z,1005.64
2016-04-24T09:31:02.561Z,1005.65
2016-04-24T09:32:03.906Z,1005.85
2016-04-24T09:33:02.660Z,1005.89
2016-04-24T09:34:02.709Z,1006.06
2016-04-24T09:35:02.759Z,1006.25
2016-04-24T09:36:02.809Z,1006.28
2016-04-24T09:37:02.858Z,1006.33
2016-04-24T09:38:02.908Z,1006.41
2016-04-24T09:39:02.957Z,1006.46
2016-04-24T09:40:03.023Z,1006.49
2016-04-24T09:41:03.056Z,1006.48
2016-04-24T09:42:03.106Z,1006.47
2016-04-24T09:43:03.172Z,1006.44
2016-04-24T09:44:03.205Z,1006.44
2016-04-24T09:45:03.270Z,1006.45
2016-04-24T09:46:03.320Z,1006.45
2016-04-24T09:47:03.355Z,1006.38
2016-04-24T09:48:03.419Z,1006.34
2016-04-24T09:49:03.469Z,1006.33
2016-04-24T09:50:03.518Z,1006.34
2016-04-24T09:51:03.583Z,1006.28
2016-04-24T09:52:03.617Z,1006.27
2016-04-24T09:53:03.683Z,1006.22
2016-04-24T09:54:04.185Z,1006.26
2016-04-24T09:55:03.766Z,1006.27
2016-04-24T09:56:03.815Z,1006.25
2016-04-24T09:57:03.881Z,1006.21
2016-04-24T09:58:03.915Z,1006.2
2016-04-24T09:59:03.979Z,1006.13
2016-04-24T10:00:04.029Z,1006.09
2016-04-24T10:01:04.079Z,1006.09
2016-04-24T10:02:04.129Z,1006.04
2016-04-24T10:03:04.178Z,1006.05
2016-04-24T10:04:04.228Z,1006.03
2016-04-24T10:05:04.278Z,1006.04
2016-04-24T10:06:04.326Z,1005.97
2016-04-24T10:07:04.376Z,1006
2016-04-24T10:08:04.442Z,1005.94
2016-04-24T10:09:05.195Z,1005.91
2016-04-24T10:10:04.978Z,1005.86
2016-04-24T10:11:04.590Z,1005.8
2016-04-24T10:12:04.640Z,1005.79
2016-04-24T10:13:04.689Z,1005.8
2016-04-24T10:14:04.739Z,1005.75
2016-04-24T10:15:04.789Z,1005.71
2016-04-24T10:16:04.838Z,1005.76
2016-04-24T10:17:04.888Z,1005.77
2016-04-24T10:18:04.938Z,1005.75
2016-04-24T10:19:04.986Z,1005.73
2016-04-24T10:20:05.037Z,1005.72
2016-04-24T10:21:05.399Z,1005.66
2016-04-24T10:22:05.151Z,1005.6
2016-04-24T10:23:05.185Z,1005.57
2016-04-24T10:24:05.406Z,1005.57
2016-04-24T10:25:05.300Z,1005.58
2016-04-24T10:26:05.334Z,1005.51
2016-04-24T10:27:05.399Z,1005.43
2016-04-24T10:28:05.448Z,1005.44
2016-04-24T10:29:05.499Z,1005.38
2016-04-24T10:30:05.548Z,1005.44
2016-04-24T10:31:05.598Z,1005.42
2016-04-24T10:32:05.646Z,1005.38
2016-04-24T10:33:05.696Z,1005.37
2016-04-24T10:34:05.762Z,1005.32
2016-04-24T10:35:05.796Z,1005.33
2016-04-24T10:36:05.846Z,1005.34
2016-04-24T10:37:05.910Z,1005.39
2016-04-24T10:38:05.944Z,1005.34
2016-04-24T10:39:06.009Z,1005.25
2016-04-24T10:40:06.293Z,1005.19
2016-04-24T10:41:06.108Z,1005.19
2016-04-24T10:42:06.158Z,1005.21
2016-04-24T10:43:06.208Z,1005.13
2016-04-24T10:44:06.258Z,1005.1
2016-04-24T10:45:06.307Z,1005.11
2016-04-24T10:46:06.356Z,1005.1
2016-04-24T10:47:06.405Z,1005.11
2016-04-24T10:48:06.472Z,1005.08
2016-04-24T10:49:06.505Z,1005.09
2016-04-24T10:50:06.555Z,1005.16
2016-04-24T10:51:06.620Z,1005.12
2016-04-24T10:52:06.669Z,1005.08
2016-04-24T10:53:06.703Z,1005.1
2016-04-24T10:54:06.988Z,1005.08
2016-04-24T10:55:06.818Z,1005.09
2016-04-24T10:56:06.868Z,1005.1
2016-04-24T10:57:06.918Z,1005.05
2016-04-24T10:58:06.982Z,1005.1
2016-04-24T10:59:07.023Z,1005.18
2016-04-24T11:00:07.113Z,1005.24
2016-04-24T11:01:07.220Z,1005.27
2016-04-24T11:02:07.295Z,1005.3
2016-04-24T11:03:07.386Z,1005.34
2016-04-24T11:04:07.487Z,1005.35
2016-04-24T11:05:07.552Z,1005.27
2016-04-24T11:06:07.617Z,1005.29
2016-04-24T11:07:07.681Z,1005.21
2016-04-24T11:08:07.746Z,1005.2
2016-04-24T11:09:08.324Z,1005.2
2016-04-24T11:10:07.865Z,1005.14
2016-04-24T11:11:07.918Z,1005.11
2016-04-24T11:12:07.990Z,1005.09
2016-04-24T11:13:08.029Z,1005.13
2016-04-24T11:14:08.083Z,1005.09
2016-04-24T11:15:08.151Z,1005.07
2016-04-24T11:16:08.201Z,1005.03
2016-04-24T11:17:08.253Z,1005.03
2016-04-24T11:18:08.305Z,1005.01
2016-04-24T11:19:08.340Z,1005.03
2016-04-24T11:20:08.406Z,1005.02
2016-04-24T11:21:08.456Z,1004.99
2016-04-24T11:22:08.506Z,1004.97
2016-04-24T11:23:08.556Z,1004.94
2016-04-24T11:24:08.605Z,1004.97
2016-04-24T11:25:08.655Z,1004.95
2016-04-24T11:26:08.705Z,1004.91
2016-04-24T11:27:08.772Z,1004.91
2016-04-24T11:28:08.805Z,1004.85
2016-04-24T11:29:08.871Z,1004.87
2016-04-24T11:30:08.906Z,1004.83
2016-04-24T11:31:08.970Z,1004.79
2016-04-24T11:32:09.020Z,1004.76
2016-04-24T11:33:09.069Z,1004.79
2016-04-24T11:34:09.119Z,1004.84
2016-04-24T11:35:09.168Z,1004.76
2016-04-24T11:36:09.218Z,1004.79
2016-04-24T11:37:09.283Z,1004.78
2016-04-24T11:38:09.333Z,1004.8
2016-04-24T11:39:09.382Z,1004.81
2016-04-24T11:40:09.416Z,1004.77
2016-04-24T11:41:09.481Z,1004.75
2016-04-24T11:42:09.515Z,1004.74
2016-04-24T11:43:09.581Z,1004.72
2016-04-24T11:44:09.630Z,1004.73
2016-04-24T11:45:09.679Z,1004.76
2016-04-24T11:46:09.729Z,1004.74
2016-04-24T11:47:09.779Z,1004.82
2016-04-24T11:48:09.829Z,1004.89
2016-04-24T11:49:09.878Z,1004.9
2016-04-24T11:50:09.927Z,1005.08
2016-04-24T11:51:09.977Z,1005.24
2016-04-24T11:52:10.027Z,1005.31
2016-04-24T11:53:10.076Z,1005.3
2016-04-24T11:54:10.126Z,1005.28
2016-04-24T11:55:10.191Z,1005.22
2016-04-24T11:56:10.225Z,1005.3
2016-04-24T11:57:10.290Z,1005.29
2016-04-24T11:58:10.340Z,1005.3
2016-04-24T11:59:10.373Z,1005.32
2016-04-24T12:00:10.439Z,1005.32
2016-04-24T12:01:10.488Z,1005.34
2016-04-24T12:02:10.538Z,1005.3
2016-04-24T12:03:10.587Z,1005.36
2016-04-24T12:04:10.653Z,1005.35
2016-04-24T12:05:10.686Z,1005.34
2016-04-24T12:06:10.736Z,1005.28
2016-04-24T12:07:10.802Z,1005.18
2016-04-24T12:08:10.835Z,1005.25
2016-04-24T12:09:10.885Z,1005.17